X  Close Metar Aviation Weather Data        KDLZ Delaware Municipal Airport
Temperature
30°C Temperature
13°C Dewpoint
35% Humidity



Wind
9 KM/H
6 MPH
3 M/S
5 KTS



290°
WNW
Current Conditions

Partly Cloudy Partly Cloudy
Pressure 1013 (hPa) - 29.91 (inHg)
Visibility 10 (mile) - 16 (km)
Airport
Airport-code KDLZ

Location: Delaware Municipal Airport
Distance: 18 (km)

Metar:
METAR KDLZ 191955Z AUTO 29005KT 10SM SCT065 30/13 A2997 RMK AO2

Time: 05-19-2024 3:55 pm EDT